Noonday, Texas
Current Conditions -  °F | °C
As of 2:53 PM on Friday 24 Oct 2014 (Local Time) from KTYR Reporting Station
Clear Clear  
Wind Chill: 80°   Ceiling: Unl
Heat Index: 80°   Visibility: 10mi
Dew Point: 56°   Wind: 3mph
Humidity: 43%   Direction: 30°NNE
Pressure: 30.11"   Gusts: NA
Location:  32.2242°N, 95.404°W
Report Text: KTYR 241953Z 03003KT 10SM CLR 27/13 A3011 RMK AO2 SLP191 T02670133
Loading
Personal Weather Stations






























Interactive Weather Map
Tropical Storm Tracking
New forecast layout! Learn more

10-Day Weather Forecast

Advertisements
Track Severe Weather on mobile